createdAt,value
2022-11-13T00:01:59.898Z,8.57
2022-11-13T00:04:27.367Z,8.37
2022-11-13T00:06:59.087Z,8.63
2022-11-13T00:09:27.074Z,8.53
2022-11-13T00:11:54.477Z,8.10
2022-11-13T00:14:22.065Z,9.50
2022-11-13T00:16:49.463Z,9.07
2022-11-13T00:19:16.983Z,8.20
2022-11-13T00:21:44.399Z,9.13
2022-11-13T00:24:13.242Z,8.80
2022-11-13T00:26:40.722Z,8.47
2022-11-13T00:29:08.156Z,8.80
2022-11-13T00:31:35.536Z,8.77
2022-11-13T00:34:25.863Z,8.60
2022-11-13T00:36:50.336Z,9.10
2022-11-13T00:39:19.125Z,8.63
2022-11-13T00:41:46.574Z,8.27
2022-11-13T00:44:14.107Z,9.20
2022-11-13T00:46:41.566Z,9.23
2022-11-13T00:49:09.009Z,9.13
2022-11-13T00:51:36.414Z,9.07
2022-11-13T00:54:03.870Z,8.97
2022-11-13T00:56:32.667Z,9.10
2022-11-13T00:59:00.052Z,10.30
2022-11-13T01:01:27.478Z,10.27
2022-11-13T01:03:54.965Z,9.50
2022-11-13T01:06:23.753Z,9.47
2022-11-13T01:08:51.288Z,10.10
2022-11-13T01:11:19.751Z,9.33
2022-11-13T01:13:49.648Z,9.30
2022-11-13T01:16:17.984Z,9.97
2022-11-13T01:18:45.342Z,9.50
2022-11-13T01:21:13.617Z,9.53
2022-11-13T01:23:41.286Z,9.47
2022-11-13T01:26:10.433Z,9.27
2022-11-13T01:28:37.862Z,9.33
2022-11-13T01:31:07.576Z,9.47
2022-11-13T01:33:35.142Z,8.87
2022-11-13T01:36:03.294Z,9.13
2022-11-13T01:38:35.737Z,8.70
2022-11-13T01:41:03.820Z,8.53
2022-11-13T01:43:32.253Z,8.30
2022-11-13T01:46:10.142Z,8.77
2022-11-13T01:48:40.947Z,8.20
2022-11-13T01:51:11.041Z,7.93
2022-11-13T01:53:38.591Z,8.83
2022-11-13T01:56:06.373Z,8.70
2022-11-13T01:58:34.049Z,7.90
2022-11-13T02:01:01.779Z,9.13
2022-11-13T02:03:29.191Z,8.50
2022-11-13T02:05:57.975Z,8.13
2022-11-13T02:08:25.725Z,8.47
2022-11-13T02:10:53.648Z,7.87
2022-11-13T02:13:21.778Z,8.30
2022-11-13T02:15:49.744Z,7.90
2022-11-13T02:18:17.927Z,7.60
2022-11-13T02:20:48.406Z,8.40
2022-11-13T02:23:20.563Z,7.50
2022-11-13T02:25:51.478Z,7.60
2022-11-13T02:28:18.930Z,7.27
2022-11-13T02:30:46.370Z,6.73
2022-11-13T02:33:21.793Z,6.90
2022-11-13T02:35:49.256Z,7.03
2022-11-13T02:38:16.643Z,7.03
2022-11-13T02:40:44.019Z,7.07
2022-11-13T02:43:12.798Z,6.37
2022-11-13T02:45:40.201Z,6.83
2022-11-13T02:48:07.819Z,6.77
2022-11-13T02:50:35.711Z,6.83
2022-11-13T02:53:03.255Z,6.70
2022-11-13T02:55:30.656Z,6.50
2022-11-13T02:57:58.035Z,6.40
2022-11-13T03:00:27.028Z,6.20
2022-11-13T03:02:55.795Z,6.70
2022-11-13T03:05:23.347Z,7.03
2022-11-13T03:07:50.763Z,7.20
2022-11-13T03:10:18.460Z,6.50
2022-11-13T03:12:45.852Z,6.37
2022-11-13T03:15:13.363Z,6.33
2022-11-13T03:17:42.119Z,6.80
2022-11-13T03:20:09.917Z,6.60
2022-11-13T03:22:37.419Z,6.00
2022-11-13T03:25:10.179Z,6.47
2022-11-13T03:27:38.244Z,6.03
2022-11-13T03:30:07.649Z,6.30
2022-11-13T03:32:35.059Z,6.10
2022-11-13T03:35:03.982Z,6.10
2022-11-13T03:37:31.381Z,5.63
2022-11-13T03:39:58.794Z,6.50
2022-11-13T03:42:26.158Z,5.70
2022-11-13T03:44:53.914Z,6.00
2022-11-13T03:47:21.378Z,5.50
2022-11-13T03:49:48.761Z,6.37
2022-11-13T03:52:17.494Z,6.30
2022-11-13T03:54:44.895Z,5.60
2022-11-13T03:57:12.300Z,6.00
2022-11-13T03:59:39.714Z,6.23
2022-11-13T04:02:07.195Z,6.00
2022-11-13T04:04:34.656Z,5.97
2022-11-13T04:07:02.086Z,5.90
2022-11-13T04:09:30.875Z,5.90
2022-11-13T04:11:58.250Z,5.83
2022-11-13T04:14:25.643Z,6.23
2022-11-13T04:16:53.063Z,5.60
2022-11-13T04:19:20.474Z,6.13
2022-11-13T04:21:47.864Z,5.50
2022-11-13T04:24:15.252Z,5.53
2022-11-13T04:26:44.127Z,5.90
2022-11-13T04:29:11.571Z,5.60
2022-11-13T04:31:38.950Z,5.33
2022-11-13T04:34:06.334Z,6.00
2022-11-13T04:36:33.730Z,6.00
2022-11-13T04:39:01.112Z,5.00
2022-11-13T04:41:48.031Z,5.90
2022-11-13T04:44:20.019Z,5.10
2022-11-13T04:46:47.415Z,5.30
2022-11-13T04:49:14.810Z,5.30
2022-11-13T04:51:42.189Z,5.17
2022-11-13T04:54:09.628Z,5.87
2022-11-13T04:56:37.054Z,5.30
2022-11-13T04:59:04.473Z,5.10
2022-11-13T05:01:33.346Z,5.53
2022-11-13T05:04:00.769Z,5.13
2022-11-13T05:06:28.191Z,5.17
2022-11-13T05:08:55.581Z,5.10
2022-11-13T05:11:23.031Z,5.10
2022-11-13T05:13:50.421Z,5.10
2022-11-13T05:16:17.837Z,5.40
2022-11-13T05:18:46.579Z,4.90
2022-11-13T05:21:13.946Z,4.93
2022-11-13T05:23:41.644Z,5.30
2022-11-13T05:26:10.301Z,5.33
2022-11-13T05:28:38.169Z,5.43
2022-11-13T05:31:06.349Z,5.63
2022-11-13T05:33:33.769Z,5.43
2022-11-13T05:36:05.994Z,5.03
2022-11-13T05:38:33.614Z,5.37
2022-11-13T05:41:04.319Z,5.10
2022-11-13T05:43:31.803Z,5.20
2022-11-13T05:46:03.206Z,4.87
2022-11-13T05:48:31.115Z,5.17
2022-11-13T05:51:02.079Z,5.10
2022-11-13T05:53:30.877Z,5.00
2022-11-13T05:56:01.167Z,5.00
2022-11-13T05:58:29.291Z,5.23
2022-11-13T06:01:05.977Z,4.23
2022-11-13T06:03:33.405Z,5.40
2022-11-13T06:06:01.070Z,5.13
2022-11-13T06:08:28.933Z,4.97
2022-11-13T06:11:00.841Z,4.93
2022-11-13T06:13:28.603Z,5.13
2022-11-13T06:15:56.038Z,5.13
2022-11-13T06:18:26.474Z,5.10
2022-11-13T06:20:54.324Z,5.23
2022-11-13T06:23:21.730Z,5.47
2022-11-13T06:25:49.132Z,5.07
2022-11-13T06:28:17.912Z,4.87
2022-11-13T06:30:45.291Z,5.60
2022-11-13T06:33:12.699Z,6.10
2022-11-13T06:35:40.121Z,6.57
2022-11-13T06:38:07.624Z,10.67
2022-11-13T06:40:35.035Z,10.90
2022-11-13T06:43:02.470Z,8.67
2022-11-13T06:45:31.240Z,10.17
2022-11-13T06:47:58.631Z,8.50
2022-11-13T06:50:26.007Z,6.50
2022-11-13T06:52:53.416Z,5.73
2022-11-13T06:55:20.818Z,5.30
2022-11-13T06:57:48.188Z,5.50
2022-11-13T07:00:16.210Z,5.33
2022-11-13T07:02:44.934Z,5.30
2022-11-13T07:05:12.326Z,5.47
2022-11-13T07:07:39.719Z,4.67
2022-11-13T07:10:07.604Z,5.17
2022-11-13T07:12:35.256Z,5.10
2022-11-13T07:15:02.647Z,4.50
2022-11-13T07:17:30.074Z,4.87
2022-11-13T07:19:58.816Z,4.23
2022-11-13T07:22:26.364Z,4.50
2022-11-13T07:24:53.760Z,4.70
2022-11-13T07:27:21.143Z,5.00
2022-11-13T07:29:48.526Z,4.90
2022-11-13T07:32:16.186Z,5.30
2022-11-13T07:34:43.577Z,5.00
2022-11-13T07:37:12.284Z,5.10
2022-11-13T07:39:39.707Z,5.13
2022-11-13T07:42:07.078Z,4.53
2022-11-13T07:44:53.552Z,4.67
2022-11-13T07:47:21.850Z,3.90
2022-11-13T07:49:49.216Z,4.60
2022-11-13T07:52:18.090Z,4.40
2022-11-13T07:54:45.472Z,4.23
2022-11-13T07:57:12.884Z,4.40
2022-11-13T07:59:40.327Z,4.00
2022-11-13T08:02:07.881Z,4.23
2022-11-13T08:04:35.278Z,4.30
2022-11-13T08:07:02.741Z,4.30
2022-11-13T08:09:31.508Z,4.23
2022-11-13T08:11:58.923Z,4.33
2022-11-13T08:14:26.349Z,4.50
2022-11-13T08:16:53.729Z,4.50
2022-11-13T08:19:21.119Z,5.23
2022-11-13T08:21:48.526Z,5.20
2022-11-13T08:24:15.913Z,4.73
2022-11-13T08:26:44.813Z,4.47
2022-11-13T08:29:12.167Z,4.77
2022-11-13T08:31:39.546Z,4.60
2022-11-13T08:34:06.969Z,5.10
2022-11-13T08:36:34.378Z,5.07
2022-11-13T08:39:01.768Z,5.20
2022-11-13T08:41:29.285Z,4.87
2022-11-13T08:43:58.035Z,5.33
2022-11-13T08:46:25.427Z,5.03
2022-11-13T08:48:52.781Z,5.30
2022-11-13T08:51:20.528Z,5.33
2022-11-13T08:53:47.952Z,4.60
2022-11-13T08:56:15.385Z,5.00
2022-11-13T08:58:42.802Z,4.97
2022-11-13T09:01:11.630Z,5.40
2022-11-13T09:03:39.050Z,5.10
2022-11-13T09:06:07.372Z,4.90
2022-11-13T09:08:35.164Z,5.77
2022-11-13T09:11:06.084Z,5.60
2022-11-13T09:13:33.918Z,5.47
2022-11-13T09:16:01.441Z,6.27
2022-11-13T09:18:31.108Z,6.70
2022-11-13T09:21:01.699Z,6.13
2022-11-13T09:23:29.763Z,5.50
2022-11-13T09:25:57.502Z,4.90
2022-11-13T09:28:24.900Z,5.80
2022-11-13T09:30:52.326Z,5.53
2022-11-13T09:33:19.769Z,5.30
2022-11-13T09:35:48.494Z,5.60
2022-11-13T09:38:16.489Z,5.60
2022-11-13T09:40:47.925Z,4.70
2022-11-13T09:43:21.350Z,5.00
2022-11-13T09:45:48.997Z,4.80
2022-11-13T09:48:23.407Z,4.60
2022-11-13T09:50:52.673Z,4.47
2022-11-13T09:53:20.210Z,3.93
2022-11-13T09:55:52.044Z,4.13
2022-11-13T09:58:21.269Z,4.37
2022-11-13T10:00:48.967Z,4.20
2022-11-13T10:03:46.207Z,4.37
2022-11-13T10:06:15.014Z,4.17
2022-11-13T10:08:48.645Z,4.13
2022-11-13T10:11:18.461Z,4.33
2022-11-13T10:13:47.154Z,5.20
2022-11-13T10:16:20.257Z,5.00
2022-11-13T10:18:50.012Z,5.37
2022-11-13T10:21:25.038Z,4.60
2022-11-13T10:23:55.130Z,4.53
2022-11-13T10:26:24.577Z,3.80
2022-11-13T10:28:57.479Z,3.20
2022-11-13T10:31:24.882Z,2.53
2022-11-13T10:33:53.780Z,2.90
2022-11-13T10:36:33.832Z,2.80
2022-11-13T10:39:02.582Z,2.40
2022-11-13T10:41:30.040Z,2.77
2022-11-13T10:43:58.169Z,2.47
2022-11-13T10:46:26.528Z,2.37
2022-11-13T10:48:53.971Z,2.33
2022-11-13T10:51:25.248Z,2.30
2022-11-13T10:53:53.253Z,2.77
2022-11-13T10:56:26.226Z,2.23
2022-11-13T10:59:03.808Z,2.40
2022-11-13T11:01:31.474Z,2.30
2022-11-13T11:03:58.904Z,2.70
2022-11-13T11:07:04.564Z,2.23
2022-11-13T11:09:24.029Z,2.40
2022-11-13T11:12:17.200Z,2.20
2022-11-13T11:14:47.588Z,2.40
2022-11-13T11:17:16.967Z,2.37
2022-11-13T11:19:45.726Z,2.30
2022-11-13T11:22:16.926Z,2.40
2022-11-13T11:24:46.312Z,2.50
2022-11-13T11:27:16.219Z,2.57
2022-11-13T11:29:46.004Z,2.37
2022-11-13T11:32:17.769Z,2.13
2022-11-13T11:34:46.905Z,2.03
2022-11-13T11:37:16.398Z,2.30
2022-11-13T11:39:46.991Z,2.30
2022-11-13T11:42:19.177Z,2.47
2022-11-13T11:44:53.646Z,2.60
2022-11-13T11:47:21.302Z,2.20
2022-11-13T11:49:48.706Z,2.17
2022-11-13T11:52:25.810Z,2.13
2022-11-13T11:54:57.138Z,2.00
2022-11-13T11:57:31.660Z,2.00
2022-11-13T12:00:05.081Z,2.30
2022-11-13T12:02:52.326Z,2.00
2022-11-13T12:05:23.927Z,2.10
2022-11-13T12:07:58.857Z,2.10
2022-11-13T12:10:29.608Z,1.93
2022-11-13T12:13:05.951Z,2.20
2022-11-13T12:15:38.809Z,1.97
2022-11-13T12:18:11.208Z,1.70
2022-11-13T12:20:42.784Z,1.97
2022-11-13T12:23:17.565Z,1.67
2022-11-13T12:25:47.510Z,2.40
2022-11-13T12:28:18.578Z,1.83
2022-11-13T12:30:53.028Z,1.77
2022-11-13T12:33:23.858Z,2.37
2022-11-13T12:35:52.444Z,1.90
2022-11-13T12:38:29.073Z,2.40
2022-11-13T12:40:59.726Z,1.90
2022-11-13T12:43:35.080Z,1.97
2022-11-13T12:46:06.446Z,2.10
2022-11-13T12:48:34.668Z,1.97
2022-11-13T12:51:03.169Z,1.97
2022-11-13T12:53:32.568Z,1.80
2022-11-13T12:56:01.166Z,1.90
2022-11-13T12:58:29.559Z,2.00
2022-11-13T13:00:59.701Z,2.20
2022-11-13T13:03:42.016Z,2.00
2022-11-13T13:06:14.341Z,1.97
2022-11-13T13:08:48.462Z,1.87
2022-11-13T13:11:18.680Z,2.10
2022-11-13T13:13:50.157Z,1.90
2022-11-13T13:16:22.936Z,1.67
2022-11-13T13:18:50.391Z,1.93
2022-11-13T13:21:18.929Z,1.90
2022-11-13T13:23:48.782Z,2.10
2022-11-13T13:26:18.282Z,2.00
2022-11-13T13:28:48.908Z,2.00
2022-11-13T13:31:22.754Z,1.90
2022-11-13T13:33:54.436Z,1.93
2022-11-13T13:36:25.752Z,2.10
2022-11-13T13:38:58.430Z,2.00
2022-11-13T13:41:33.090Z,1.70
2022-11-13T13:44:11.591Z,2.03
2022-11-13T13:46:38.983Z,1.80
2022-11-13T13:49:09.430Z,2.30
2022-11-13T13:51:40.679Z,2.17
2022-11-13T13:54:09.762Z,2.77
2022-11-13T13:56:41.302Z,2.33
2022-11-13T13:59:14.864Z,3.13
2022-11-13T14:01:42.312Z,2.67
2022-11-13T14:04:13.723Z,2.33
2022-11-13T14:06:49.141Z,2.30
2022-11-13T14:09:19.866Z,2.30
2022-11-13T14:11:48.650Z,1.90
2022-11-13T14:14:19.544Z,2.00
2022-11-13T14:16:50.326Z,1.87
2022-11-13T14:19:17.982Z,2.00
2022-11-13T14:21:46.789Z,2.20
2022-11-13T14:24:16.939Z,1.90
2022-11-13T14:26:45.708Z,2.20
2022-11-13T14:29:20.619Z,2.03
2022-11-13T14:31:47.992Z,2.00
2022-11-13T14:34:17.809Z,2.10
2022-11-13T14:36:45.474Z,2.40
2022-11-13T14:39:20.405Z,2.43
2022-11-13T14:41:51.313Z,2.20
2022-11-13T14:44:30.787Z,2.50
2022-11-13T14:47:00.315Z,2.00
2022-11-13T14:49:28.438Z,2.37
2022-11-13T14:51:56.611Z,2.10
2022-11-13T14:54:53.080Z,1.93
2022-11-13T14:57:20.344Z,2.13
2022-11-13T14:59:47.743Z,2.07
2022-11-13T15:02:15.148Z,2.17
2022-11-13T15:04:42.589Z,2.27
2022-11-13T15:07:20.729Z,2.40
2022-11-13T15:09:49.808Z,2.17
2022-11-13T15:12:17.198Z,1.90
2022-11-13T15:14:45.956Z,2.00
2022-11-13T15:17:15.444Z,2.13
2022-11-13T15:19:42.882Z,2.10
2022-11-13T15:22:28.349Z,1.90
2022-11-13T15:24:56.216Z,2.13
2022-11-13T15:27:23.597Z,2.20
2022-11-13T15:29:52.334Z,2.10
2022-11-13T15:32:19.769Z,1.93
2022-11-13T15:34:47.141Z,2.40
2022-11-13T15:37:15.543Z,2.47
2022-11-13T15:39:43.088Z,2.33
2022-11-13T15:42:13.148Z,2.23
2022-11-13T15:44:40.648Z,2.10
2022-11-13T15:47:17.418Z,2.50
2022-11-13T15:49:56.606Z,2.70
2022-11-13T15:52:31.930Z,2.67
2022-11-13T15:54:59.755Z,2.37
2022-11-13T15:57:28.393Z,2.10
2022-11-13T15:59:55.815Z,2.57
2022-11-13T16:02:24.595Z,2.30
2022-11-13T16:04:56.612Z,2.33
2022-11-13T16:07:27.411Z,2.33
2022-11-13T16:09:54.835Z,2.33
2022-11-13T16:12:22.245Z,2.77
2022-11-13T16:14:49.593Z,2.70
2022-11-13T16:17:20.040Z,2.43
2022-11-13T16:19:49.416Z,2.30
2022-11-13T16:22:18.196Z,3.00
2022-11-13T16:24:45.919Z,3.33
2022-11-13T16:27:14.925Z,2.87
2022-11-13T16:29:42.338Z,2.37
2022-11-13T16:32:13.370Z,2.70
2022-11-13T16:34:40.767Z,3.60
2022-11-13T16:37:13.618Z,3.17
2022-11-13T16:39:41.018Z,3.20
2022-11-13T16:42:08.511Z,3.30
2022-11-13T16:44:36.014Z,3.30
2022-11-13T16:47:03.523Z,3.20
2022-11-13T16:49:30.922Z,2.67
2022-11-13T16:51:58.346Z,2.70
2022-11-13T16:54:27.082Z,3.17
2022-11-13T16:56:54.477Z,2.90
2022-11-13T16:59:23.247Z,2.90
2022-11-13T17:01:54.458Z,3.03
2022-11-13T17:04:22.090Z,5.30
2022-11-13T17:06:51.418Z,5.07
2022-11-13T17:09:20.593Z,4.27
2022-11-13T17:11:49.369Z,3.67
2022-11-13T17:14:16.843Z,3.97
2022-11-13T17:16:44.238Z,3.60
2022-11-13T17:19:13.362Z,3.60
2022-11-13T17:21:44.254Z,3.70
2022-11-13T17:24:12.075Z,3.57
2022-11-13T17:26:39.458Z,4.03
2022-11-13T17:29:08.181Z,4.60
2022-11-13T17:31:35.596Z,4.27
2022-11-13T17:34:02.962Z,3.73
2022-11-13T17:36:30.435Z,3.60
2022-11-13T17:38:57.855Z,5.17
2022-11-13T17:41:25.279Z,5.87
2022-11-13T17:43:55.667Z,5.40
2022-11-13T17:46:28.616Z,5.93
2022-11-13T17:48:56.028Z,6.50
2022-11-13T17:51:23.408Z,7.20
2022-11-13T17:53:50.784Z,7.80
2022-11-13T17:56:20.069Z,7.43
2022-11-13T17:58:47.462Z,8.10
2022-11-13T18:01:15.711Z,7.23
2022-11-13T18:03:44.712Z,7.30
2022-11-13T18:06:13.702Z,6.60
2022-11-13T18:08:43.266Z,6.43
2022-11-13T18:11:11.553Z,7.17
2022-11-13T18:13:39.218Z,6.67
2022-11-13T18:16:07.566Z,6.20
2022-11-13T18:18:34.971Z,5.57
2022-11-13T18:21:22.553Z,6.90
2022-11-13T18:23:50.774Z,6.10
2022-11-13T18:26:19.690Z,6.23
2022-11-13T18:28:47.073Z,5.57
2022-11-13T18:31:15.313Z,7.63
2022-11-13T18:33:42.966Z,9.20
2022-11-13T18:36:11.734Z,11.83
2022-11-13T18:38:39.159Z,11.67
2022-11-13T18:41:07.590Z,7.47
2022-11-13T18:43:35.358Z,5.67
2022-11-13T18:46:04.702Z,5.93
2022-11-13T18:48:32.156Z,4.77
2022-11-13T18:51:00.165Z,6.03
2022-11-13T18:53:29.494Z,5.63
2022-11-13T18:55:59.909Z,6.13
2022-11-13T18:58:27.307Z,6.03
2022-11-13T19:00:54.705Z,7.40
2022-11-13T19:03:22.388Z,7.90
2022-11-13T19:05:49.999Z,7.20
2022-11-13T19:08:17.570Z,7.20
2022-11-13T19:10:46.429Z,7.43
2022-11-13T19:13:13.854Z,7.27
2022-11-13T19:15:41.301Z,6.27
2022-11-13T19:18:08.723Z,6.40
2022-11-13T19:20:38.564Z,6.10
2022-11-13T19:23:09.183Z,7.50
2022-11-13T19:25:37.196Z,7.70
2022-11-13T19:28:06.035Z,6.87
2022-11-13T19:30:33.449Z,8.20
2022-11-13T19:33:00.829Z,8.17
2022-11-13T19:35:28.274Z,8.53
2022-11-13T19:37:58.722Z,8.33
2022-11-13T19:40:26.128Z,8.47
2022-11-13T19:42:53.755Z,8.43
2022-11-13T19:45:22.488Z,9.23
2022-11-13T19:47:49.875Z,7.60
2022-11-13T19:50:17.635Z,8.20
2022-11-13T19:52:45.034Z,8.33
2022-11-13T19:55:12.537Z,7.77
2022-11-13T19:57:44.942Z,7.50
2022-11-13T20:00:13.981Z,7.30
2022-11-13T20:02:42.716Z,7.20
2022-11-13T20:05:10.186Z,7.37
2022-11-13T20:07:37.555Z,7.37
2022-11-13T20:10:05.321Z,7.47
2022-11-13T20:12:32.720Z,7.47
2022-11-13T20:15:00.219Z,7.57
2022-11-13T20:17:27.716Z,7.23
2022-11-13T20:19:56.542Z,8.27
2022-11-13T20:22:24.068Z,8.70
2022-11-13T20:24:51.463Z,8.07
2022-11-13T20:27:18.946Z,7.20
2022-11-13T20:29:46.553Z,6.97
2022-11-13T20:32:14.026Z,7.13
2022-11-13T20:34:41.422Z,6.90
2022-11-13T20:37:10.197Z,7.10
2022-11-13T20:39:38.866Z,7.00
2022-11-13T20:42:06.287Z,6.53
2022-11-13T20:44:33.677Z,6.50
2022-11-13T20:47:01.201Z,6.90
2022-11-13T20:49:28.592Z,6.70
2022-11-13T20:51:57.353Z,7.07
2022-11-13T20:54:26.287Z,7.50
2022-11-13T20:56:53.680Z,7.60
2022-11-13T20:59:21.078Z,7.13
2022-11-13T21:01:48.563Z,7.20
2022-11-13T21:04:15.982Z,7.27
2022-11-13T21:06:43.707Z,8.37
2022-11-13T21:09:11.385Z,7.40
2022-11-13T21:11:40.281Z,7.03
2022-11-13T21:14:07.689Z,7.17
2022-11-13T21:16:35.141Z,6.60
2022-11-13T21:19:02.598Z,6.17
2022-11-13T21:21:29.976Z,6.23
2022-11-13T21:23:57.828Z,7.07
2022-11-13T21:26:25.363Z,7.90
2022-11-13T21:28:56.309Z,8.57
2022-11-13T21:31:23.761Z,7.70
2022-11-13T21:33:51.188Z,8.40
2022-11-13T21:36:19.530Z,9.67
2022-11-13T21:38:47.244Z,12.30
2022-11-13T21:41:24.757Z,11.17
2022-11-13T21:43:53.725Z,10.83
2022-11-13T21:46:22.990Z,10.27
2022-11-13T21:48:55.217Z,9.40
2022-11-13T21:51:22.606Z,8.10
2022-11-13T21:53:50.079Z,7.83
2022-11-13T21:56:17.576Z,6.33
2022-11-13T21:58:44.987Z,6.07
2022-11-13T22:01:12.875Z,6.20
2022-11-13T22:03:41.643Z,6.17
2022-11-13T22:06:12.444Z,5.57
2022-11-13T22:08:39.883Z,5.70
2022-11-13T22:11:07.517Z,5.90
2022-11-13T22:13:34.953Z,5.60
2022-11-13T22:16:03.455Z,6.03
2022-11-13T22:18:31.157Z,5.73
2022-11-13T22:21:03.561Z,6.20
2022-11-13T22:23:31.012Z,6.70
2022-11-13T22:26:02.097Z,6.73
2022-11-13T22:28:30.240Z,6.43
2022-11-13T22:30:57.994Z,6.70
2022-11-13T22:33:27.304Z,6.80
2022-11-13T22:35:54.746Z,6.50
2022-11-13T22:38:23.479Z,7.10
2022-11-13T22:40:50.866Z,7.40
2022-11-13T22:43:18.263Z,13.20
2022-11-13T22:45:45.902Z,14.63
2022-11-13T22:48:13.301Z,15.57
2022-11-13T22:50:40.719Z,13.00
2022-11-13T22:53:08.121Z,12.90
2022-11-13T22:55:36.872Z,12.80
2022-11-13T22:58:04.281Z,12.30
2022-11-13T23:00:31.662Z,12.90
2022-11-13T23:03:00.691Z,12.60
2022-11-13T23:05:28.109Z,11.00
2022-11-13T23:07:55.431Z,10.43
2022-11-13T23:10:25.337Z,9.63
2022-11-13T23:12:54.188Z,9.73
2022-11-13T23:15:21.714Z,10.87
2022-11-13T23:17:49.102Z,9.70
2022-11-13T23:20:16.603Z,10.40
2022-11-13T23:22:44.010Z,10.63
2022-11-13T23:25:11.418Z,9.40
2022-11-13T23:27:38.827Z,10.27
2022-11-13T23:30:08.596Z,10.40
2022-11-13T23:32:35.989Z,12.10
2022-11-13T23:35:03.349Z,12.20
2022-11-13T23:37:30.730Z,12.33
2022-11-13T23:39:58.142Z,11.80
2022-11-13T23:42:45.724Z,12.27
2022-11-13T23:45:14.258Z,14.33
2022-11-13T23:47:41.762Z,12.20
2022-11-13T23:50:09.973Z,12.20
2022-11-13T23:52:37.386Z,11.97
2022-11-13T23:55:05.163Z,14.10
2022-11-13T23:57:32.527Z,12.50
2022-11-13T23:59:59.959Z,13.10
